createdAt,value
2023-10-05T00:02:23.504Z,91.77
2023-10-05T00:04:52.399Z,91.90
2023-10-05T00:07:27.928Z,92.13
2023-10-05T00:09:58.257Z,92.41
2023-10-05T00:12:25.682Z,92.71
2023-10-05T00:15:15.273Z,92.78
2023-10-05T00:17:42.531Z,92.70
2023-10-05T00:20:15.725Z,92.81
2023-10-05T00:22:44.475Z,93.04
2023-10-05T00:25:12.213Z,93.32
2023-10-05T00:27:39.851Z,93.54
2023-10-05T00:30:07.900Z,93.74
2023-10-05T00:32:40.929Z,93.79
2023-10-05T00:35:28.557Z,93.78
2023-10-05T00:37:58.736Z,93.86
2023-10-05T00:40:36.876Z,94.02
2023-10-05T00:43:26.066Z,94.22
2023-10-05T00:45:53.616Z,94.39
2023-10-05T00:48:35.623Z,94.50
2023-10-05T00:51:18.661Z,94.64
2023-10-05T00:53:48.132Z,94.90
2023-10-05T00:56:16.465Z,95.22
2023-10-05T00:58:45.491Z,95.27
2023-10-05T01:01:28.762Z,95.27
2023-10-05T01:04:12.133Z,95.50
2023-10-05T01:07:02.102Z,95.62
2023-10-05T01:09:32.047Z,95.78
2023-10-05T01:12:11.729Z,95.97
2023-10-05T01:14:39.562Z,96.22
2023-10-05T01:17:07.149Z,96.14
2023-10-05T01:19:39.888Z,96.37
2023-10-05T01:22:13.702Z,96.62
2023-10-05T01:24:40.702Z,96.81
2023-10-05T01:27:07.628Z,96.92
2023-10-05T01:29:35.354Z,96.82
2023-10-05T01:32:03.515Z,96.88
2023-10-05T01:34:31.253Z,97.05
2023-10-05T01:36:59.530Z,97.29
2023-10-05T01:39:27.644Z,97.46
2023-10-05T01:41:54.551Z,97.57
2023-10-05T01:44:22.197Z,97.71
2023-10-05T01:46:50.369Z,97.97
2023-10-05T01:49:18.279Z,98.24
2023-10-05T01:51:47.053Z,98.29
2023-10-05T01:54:16.879Z,98.36
2023-10-05T01:56:46.099Z,98.51
2023-10-05T01:59:14.332Z,98.55
2023-10-05T02:01:42.341Z,98.60
2023-10-05T02:04:10.731Z,98.54
2023-10-05T02:06:43.870Z,98.56
2023-10-05T02:09:11.752Z,98.87
2023-10-05T02:11:39.967Z,99.05
2023-10-05T02:14:07.796Z,99.21
2023-10-05T02:16:35.007Z,99.20
2023-10-05T02:19:04.889Z,99.24
2023-10-05T02:21:37.846Z,99.30
2023-10-05T02:24:26.511Z,99.22
2023-10-05T02:27:02.673Z,99.27
2023-10-05T02:29:31.129Z,99.03
2023-10-05T02:32:04.624Z,98.81
2023-10-05T02:34:35.858Z,98.63
2023-10-05T02:37:05.411Z,98.55
2023-10-05T02:39:36.806Z,98.64
2023-10-05T02:42:07.220Z,98.86
2023-10-05T02:44:36.637Z,98.86
2023-10-05T02:47:09.900Z,98.84
2023-10-05T02:49:41.322Z,99.12
2023-10-05T02:52:08.651Z,99.19
2023-10-05T02:54:37.781Z,99.34
2023-10-05T02:57:08.658Z,99.66
2023-10-05T02:59:35.984Z,99.88
2023-10-05T03:02:08.238Z,99.99
2023-10-05T03:05:01.573Z,99.97
2023-10-05T03:07:29.084Z,100.00
2023-10-05T03:10:01.005Z,100.00
2023-10-05T03:12:33.442Z,100.00
2023-10-05T03:15:07.526Z,99.94
2023-10-05T03:17:37.518Z,99.94
2023-10-05T03:20:16.482Z,99.92
2023-10-05T03:22:47.134Z,99.95
2023-10-05T03:25:16.339Z,99.81
2023-10-05T03:27:46.659Z,99.46
2023-10-05T03:30:15.675Z,99.01
2023-10-05T03:32:43.896Z,98.83
2023-10-05T03:35:11.055Z,98.95
2023-10-05T03:37:42.658Z,99.06
2023-10-05T03:40:21.280Z,99.18
2023-10-05T03:42:49.790Z,99.10
2023-10-05T03:45:18.045Z,99.07
2023-10-05T03:47:45.183Z,98.84
2023-10-05T03:50:18.700Z,98.47
2023-10-05T03:52:48.934Z,98.59
2023-10-05T03:55:20.928Z,98.79
2023-10-05T03:57:53.824Z,98.79
2023-10-05T04:00:23.876Z,98.67
2023-10-05T04:02:54.375Z,98.92
2023-10-05T04:05:24.340Z,99.32
2023-10-05T04:07:53.473Z,99.96
2023-10-05T04:10:44.731Z,100.00
2023-10-05T04:13:12.461Z,100.00
2023-10-05T04:15:42.494Z,100.00
2023-10-05T04:18:13.161Z,100.00
2023-10-05T04:20:44.754Z,100.00
2023-10-05T04:23:16.569Z,100.00
2023-10-05T04:25:45.780Z,100.00
2023-10-05T04:28:13.159Z,100.00
2023-10-05T04:30:40.832Z,100.00
2023-10-05T04:33:08.737Z,100.00
2023-10-05T04:35:44.028Z,100.00
2023-10-05T04:38:12.222Z,100.00
2023-10-05T04:40:40.208Z,100.00
2023-10-05T04:43:12.672Z,100.00
2023-10-05T04:45:44.149Z,100.00
2023-10-05T04:48:13.966Z,100.00
2023-10-05T04:50:43.684Z,100.00
2023-10-05T04:53:15.625Z,100.00
2023-10-05T04:55:43.467Z,99.91
2023-10-05T04:58:22.570Z,99.49
2023-10-05T05:00:49.774Z,98.95
2023-10-05T05:03:25.856Z,98.57
2023-10-05T05:06:12.490Z,98.03
2023-10-05T05:08:43.050Z,97.70
2023-10-05T05:11:21.957Z,97.54
2023-10-05T05:13:50.250Z,97.19
2023-10-05T05:16:17.492Z,96.70
2023-10-05T05:18:45.083Z,96.13
2023-10-05T05:21:12.815Z,95.33
2023-10-05T05:23:44.258Z,94.45
2023-10-05T05:26:12.743Z,93.64
2023-10-05T05:28:40.151Z,93.08
2023-10-05T05:31:18.437Z,92.27
2023-10-05T05:33:45.932Z,91.71
2023-10-05T05:36:14.187Z,91.82
2023-10-05T05:38:41.528Z,91.51
2023-10-05T05:41:12.686Z,90.98
2023-10-05T05:43:43.312Z,91.15
2023-10-05T05:46:13.997Z,90.59
2023-10-05T05:48:44.889Z,88.42
2023-10-05T05:51:18.932Z,86.31
2023-10-05T05:53:49.283Z,85.66
2023-10-05T05:56:20.289Z,85.55
2023-10-05T05:58:47.674Z,85.34
2023-10-05T06:01:18.330Z,85.09
2023-10-05T06:03:51.336Z,85.80
2023-10-05T06:06:20.564Z,84.75
2023-10-05T06:08:48.573Z,82.76
2023-10-05T06:11:15.881Z,81.59
2023-10-05T06:13:47.133Z,80.41
2023-10-05T06:16:15.422Z,80.59
2023-10-05T06:18:45.389Z,80.97
2023-10-05T06:21:13.118Z,81.41
2023-10-05T06:23:40.093Z,81.53
2023-10-05T06:26:08.091Z,81.42
2023-10-05T06:28:35.226Z,81.88
2023-10-05T06:31:02.848Z,81.00
2023-10-05T06:33:30.567Z,77.93
2023-10-05T06:35:57.576Z,74.80
2023-10-05T06:38:24.491Z,71.59
2023-10-05T06:40:51.983Z,69.35
2023-10-05T06:43:19.136Z,66.80
2023-10-05T06:45:48.200Z,64.72
2023-10-05T06:48:16.241Z,62.30
2023-10-05T06:50:44.621Z,60.73
2023-10-05T06:53:14.937Z,59.93
2023-10-05T06:55:42.370Z,57.99
2023-10-05T06:58:09.617Z,56.49
2023-10-05T07:00:37.051Z,54.70
2023-10-05T07:03:12.691Z,53.23
2023-10-05T07:05:41.077Z,53.74
2023-10-05T07:08:08.801Z,53.99
2023-10-05T07:10:37.037Z,53.82
2023-10-05T07:13:04.989Z,53.92
2023-10-05T07:15:32.050Z,54.23
2023-10-05T07:18:00.678Z,54.97
2023-10-05T07:20:29.080Z,55.90
2023-10-05T07:22:56.910Z,56.15
2023-10-05T07:25:24.935Z,56.09
2023-10-05T07:27:52.310Z,55.02
2023-10-05T07:30:19.379Z,54.78
2023-10-05T07:32:50.647Z,54.67
2023-10-05T07:35:28.421Z,55.61
2023-10-05T07:37:55.757Z,56.04
2023-10-05T07:40:22.833Z,56.45
2023-10-05T07:42:50.828Z,56.14
2023-10-05T07:45:18.214Z,54.63
2023-10-05T07:47:45.842Z,54.09
2023-10-05T07:50:13.675Z,53.52
2023-10-05T07:52:43.762Z,54.25
2023-10-05T07:55:10.877Z,54.01
2023-10-05T07:57:37.958Z,55.23
2023-10-05T08:00:07.522Z,56.03
2023-10-05T08:02:47.445Z,56.27
2023-10-05T08:05:14.706Z,56.56
2023-10-05T08:07:42.351Z,56.44
2023-10-05T08:10:17.115Z,55.77
2023-10-05T08:12:45.624Z,55.35
2023-10-05T08:15:18.380Z,55.13
2023-10-05T08:17:55.006Z,53.49
2023-10-05T08:20:24.766Z,52.56
2023-10-05T08:22:52.543Z,52.64
2023-10-05T08:25:19.840Z,52.82
2023-10-05T08:27:50.055Z,51.87
2023-10-05T08:30:17.059Z,52.26
2023-10-05T08:32:49.408Z,51.82
2023-10-05T08:35:18.738Z,51.41
2023-10-05T08:37:50.614Z,50.79
2023-10-05T08:40:51.211Z,51.59
2023-10-05T08:43:18.958Z,53.31
2023-10-05T08:45:51.769Z,54.20
2023-10-05T08:48:38.266Z,54.11
2023-10-05T08:51:12.010Z,54.30
2023-10-05T08:53:45.797Z,53.43
2023-10-05T08:56:14.496Z,53.46
2023-10-05T08:58:48.473Z,53.43
2023-10-05T09:01:33.008Z,53.89
2023-10-05T09:04:10.115Z,54.34
2023-10-05T09:06:47.949Z,53.34
2023-10-05T09:09:28.339Z,53.01
2023-10-05T09:12:00.149Z,51.13
2023-10-05T09:14:30.305Z,50.62
2023-10-05T09:17:08.999Z,50.58
2023-10-05T09:19:36.654Z,49.79
2023-10-05T09:22:12.556Z,49.31
2023-10-05T09:24:44.779Z,49.23
2023-10-05T09:27:15.003Z,49.47
2023-10-05T09:29:42.676Z,47.68
2023-10-05T09:32:32.157Z,46.64
2023-10-05T09:35:01.977Z,47.07
2023-10-05T09:37:29.310Z,47.46
2023-10-05T09:40:02.794Z,47.65
2023-10-05T09:42:30.333Z,48.22
2023-10-05T09:45:10.377Z,47.93
2023-10-05T09:47:37.679Z,47.82
2023-10-05T09:50:11.195Z,47.58
2023-10-05T09:52:44.652Z,48.14
2023-10-05T09:55:14.667Z,48.42
2023-10-05T09:57:43.133Z,48.22
2023-10-05T10:00:13.931Z,47.92
2023-10-05T10:02:41.388Z,46.15
2023-10-05T10:05:36.214Z,45.55
2023-10-05T10:08:25.723Z,45.49
2023-10-05T10:11:23.420Z,45.04
2023-10-05T10:14:00.635Z,44.94
2023-10-05T10:16:28.822Z,45.93
2023-10-05T10:19:09.558Z,46.30
2023-10-05T10:21:58.649Z,46.44
2023-10-05T10:24:29.545Z,46.35
2023-10-05T10:27:13.857Z,46.82
2023-10-05T10:29:48.433Z,46.56
2023-10-05T10:32:20.496Z,46.27
2023-10-05T10:34:56.407Z,46.35
2023-10-05T10:37:46.226Z,46.40
2023-10-05T10:40:20.593Z,46.85
2023-10-05T10:42:51.999Z,47.27
2023-10-05T10:45:29.554Z,47.45
2023-10-05T10:47:59.427Z,47.87
2023-10-05T10:50:32.567Z,48.40
2023-10-05T10:53:00.294Z,48.87
2023-10-05T10:55:34.015Z,49.45
2023-10-05T10:58:05.757Z,49.74
2023-10-05T11:00:56.237Z,50.51
2023-10-05T11:03:28.161Z,51.23
2023-10-05T11:05:59.386Z,51.47
2023-10-05T11:08:31.953Z,51.79
2023-10-05T11:11:17.229Z,52.15
2023-10-05T11:13:44.793Z,51.30
2023-10-05T11:16:12.793Z,50.78
2023-10-05T11:18:59.920Z,50.40
2023-10-05T11:21:35.168Z,50.17
2023-10-05T11:24:07.996Z,50.36
2023-10-05T11:26:56.999Z,49.92
2023-10-05T11:29:30.977Z,49.14
2023-10-05T11:32:43.217Z,48.28
2023-10-05T11:35:20.163Z,48.01
2023-10-05T11:38:01.131Z,47.76
2023-10-05T11:42:26.326Z,47.87
2023-10-05T11:45:03.355Z,47.46
2023-10-05T11:47:37.332Z,47.44
2023-10-05T11:50:08.368Z,47.03
2023-10-05T11:52:41.885Z,47.34
2023-10-05T11:55:18.257Z,46.87
2023-10-05T11:57:46.227Z,47.16
2023-10-05T12:00:19.694Z,47.50
2023-10-05T12:02:47.714Z,47.74
2023-10-05T12:05:15.540Z,47.87
2023-10-05T12:07:47.214Z,48.25
2023-10-05T12:10:14.974Z,48.52
2023-10-05T12:12:43.100Z,48.72
2023-10-05T12:15:14.240Z,48.55
2023-10-05T12:17:41.639Z,48.48
2023-10-05T12:20:09.585Z,48.78
2023-10-05T12:22:38.645Z,48.96
2023-10-05T12:25:09.080Z,49.31
2023-10-05T12:27:36.855Z,49.70
2023-10-05T12:30:12.519Z,49.93
2023-10-05T12:32:40.440Z,49.70
2023-10-05T12:35:15.081Z,49.80
2023-10-05T12:37:43.271Z,50.04
2023-10-05T12:40:20.321Z,50.09
2023-10-05T12:42:58.598Z,49.89
2023-10-05T12:45:29.617Z,49.96
2023-10-05T12:47:56.864Z,49.92
2023-10-05T12:50:26.052Z,49.47
2023-10-05T12:52:53.476Z,49.16
2023-10-05T12:55:21.215Z,49.05
2023-10-05T12:57:51.734Z,49.02
2023-10-05T13:00:23.566Z,48.69
2023-10-05T13:02:53.462Z,48.51
2023-10-05T13:05:29.635Z,48.80
2023-10-05T13:08:02.863Z,48.73
2023-10-05T13:10:34.221Z,48.67
2023-10-05T13:13:11.391Z,48.83
2023-10-05T13:15:39.080Z,49.03
2023-10-05T13:18:21.428Z,49.30
2023-10-05T13:20:53.336Z,49.45
2023-10-05T13:23:20.598Z,49.44
2023-10-05T13:25:50.721Z,49.41
2023-10-05T13:28:21.840Z,49.56
2023-10-05T13:30:49.561Z,49.56
2023-10-05T13:33:23.176Z,49.27
2023-10-05T13:35:51.948Z,49.44
2023-10-05T13:38:21.146Z,49.63
2023-10-05T13:41:04.060Z,49.71
2023-10-05T13:43:32.319Z,49.89
2023-10-05T13:46:11.446Z,49.88
2023-10-05T13:48:41.479Z,50.05
2023-10-05T13:51:13.076Z,50.12
2023-10-05T13:53:42.578Z,50.13
2023-10-05T13:56:13.724Z,50.33
2023-10-05T13:58:44.702Z,50.57
2023-10-05T14:01:17.502Z,50.55
2023-10-05T14:03:46.617Z,50.73
2023-10-05T14:06:14.166Z,50.77
2023-10-05T14:08:45.513Z,50.99
2023-10-05T14:11:16.775Z,51.06
2023-10-05T14:13:45.717Z,51.12
2023-10-05T14:16:13.477Z,51.24
2023-10-05T14:18:40.583Z,51.44
2023-10-05T14:21:08.042Z,51.45
2023-10-05T14:23:35.719Z,51.64
2023-10-05T14:26:04.541Z,51.85
2023-10-05T14:28:33.568Z,51.94
2023-10-05T14:31:00.728Z,52.12
2023-10-05T14:33:28.856Z,52.43
2023-10-05T14:35:58.872Z,52.61
2023-10-05T14:38:26.766Z,52.76
2023-10-05T14:40:55.319Z,52.87
2023-10-05T14:43:29.751Z,53.12
2023-10-05T14:45:59.598Z,53.15
2023-10-05T14:48:33.010Z,53.53
2023-10-05T14:51:00.481Z,53.82
2023-10-05T14:53:27.577Z,54.01
2023-10-05T14:55:57.562Z,54.20
2023-10-05T14:58:26.628Z,54.27
2023-10-05T15:00:58.146Z,54.28
2023-10-05T15:03:26.530Z,54.48
2023-10-05T15:05:53.959Z,54.48
2023-10-05T15:08:21.179Z,54.52
2023-10-05T15:10:48.410Z,54.57
2023-10-05T15:13:15.994Z,54.77
2023-10-05T15:15:44.868Z,54.61
2023-10-05T15:18:12.189Z,54.74
2023-10-05T15:20:41.612Z,54.88
2023-10-05T15:23:10.682Z,54.93
2023-10-05T15:25:39.971Z,55.15
2023-10-05T15:28:13.942Z,55.42
2023-10-05T15:30:41.020Z,55.77
2023-10-05T15:33:09.093Z,56.01
2023-10-05T15:35:36.249Z,56.43
2023-10-05T15:38:06.323Z,56.58
2023-10-05T15:40:33.474Z,56.92
2023-10-05T15:43:05.701Z,57.19
2023-10-05T15:45:32.843Z,57.37
2023-10-05T15:47:59.807Z,57.69
2023-10-05T15:50:27.927Z,57.88
2023-10-05T15:52:59.245Z,58.22
2023-10-05T15:55:28.109Z,58.45
2023-10-05T15:57:56.253Z,58.67
2023-10-05T16:00:27.515Z,58.85
2023-10-05T16:02:59.304Z,59.27
2023-10-05T16:05:26.876Z,59.34
2023-10-05T16:07:56.415Z,59.61
2023-10-05T16:10:23.511Z,60.15
2023-10-05T16:12:50.574Z,60.44
2023-10-05T16:15:18.563Z,60.76
2023-10-05T16:17:49.316Z,60.99
2023-10-05T16:20:17.700Z,61.60
2023-10-05T16:22:45.279Z,62.01
2023-10-05T16:25:13.042Z,62.42
2023-10-05T16:27:46.042Z,62.98
2023-10-05T16:30:18.288Z,63.46
2023-10-05T16:32:47.569Z,63.52
2023-10-05T16:35:15.250Z,63.55
2023-10-05T16:37:44.152Z,63.66
2023-10-05T16:40:14.648Z,64.03
2023-10-05T16:42:42.538Z,64.28
2023-10-05T16:45:14.740Z,64.81
2023-10-05T16:47:45.165Z,65.19
2023-10-05T16:50:13.567Z,65.50
2023-10-05T16:52:41.387Z,65.88
2023-10-05T16:55:10.647Z,65.91
2023-10-05T16:57:41.083Z,66.09
2023-10-05T17:00:17.288Z,66.40
2023-10-05T17:02:47.724Z,66.76
2023-10-05T17:05:15.437Z,66.91
2023-10-05T17:07:48.928Z,67.09
2023-10-05T17:10:15.992Z,67.42
2023-10-05T17:12:43.112Z,67.51
2023-10-05T17:15:10.396Z,67.57
2023-10-05T17:17:37.730Z,67.64
2023-10-05T17:20:05.151Z,67.53
2023-10-05T17:22:32.978Z,67.55
2023-10-05T17:25:00.002Z,67.78
2023-10-05T17:27:27.544Z,67.78
2023-10-05T17:29:57.799Z,67.83
2023-10-05T17:32:26.062Z,67.95
2023-10-05T17:34:53.717Z,68.10
2023-10-05T17:37:21.236Z,67.96
2023-10-05T17:39:48.346Z,67.84
2023-10-05T17:42:15.333Z,67.58
2023-10-05T17:44:42.836Z,67.50
2023-10-05T17:47:10.594Z,67.33
2023-10-05T17:49:40.178Z,67.50
2023-10-05T17:52:10.518Z,67.49
2023-10-05T17:54:37.904Z,67.54
2023-10-05T17:57:05.195Z,67.70
2023-10-05T17:59:32.364Z,68.19
2023-10-05T18:01:59.871Z,68.46
2023-10-05T18:04:27.091Z,68.84
2023-10-05T18:06:54.289Z,69.29
2023-10-05T18:09:21.213Z,69.85
2023-10-05T18:11:53.676Z,70.05
2023-10-05T18:14:22.812Z,70.27
2023-10-05T18:16:53.012Z,70.68
2023-10-05T18:19:20.702Z,70.76
2023-10-05T18:21:49.423Z,70.81
2023-10-05T18:24:16.412Z,70.74
2023-10-05T18:26:44.970Z,70.67
2023-10-05T18:29:14.033Z,70.59
2023-10-05T18:31:41.120Z,70.55
2023-10-05T18:34:09.343Z,70.60
2023-10-05T18:36:36.900Z,70.51
2023-10-05T18:39:04.462Z,70.35
2023-10-05T18:41:31.596Z,70.37
2023-10-05T18:43:58.544Z,70.31
2023-10-05T18:46:25.591Z,70.15
2023-10-05T18:48:52.512Z,70.27
2023-10-05T18:51:19.630Z,70.34
2023-10-05T18:53:46.536Z,70.41
2023-10-05T18:56:13.517Z,70.40
2023-10-05T18:58:40.612Z,70.42
2023-10-05T19:01:07.750Z,70.78
2023-10-05T19:03:40.444Z,71.14
2023-10-05T19:06:08.930Z,71.21
2023-10-05T19:08:35.852Z,71.36
2023-10-05T19:11:03.678Z,71.54
2023-10-05T19:13:30.728Z,71.84
2023-10-05T19:15:57.679Z,71.86
2023-10-05T19:18:25.290Z,71.95
2023-10-05T19:20:53.022Z,72.01
2023-10-05T19:23:20.182Z,72.04
2023-10-05T19:25:47.129Z,72.01
2023-10-05T19:28:14.415Z,72.04
2023-10-05T19:30:41.739Z,72.09
2023-10-05T19:33:08.679Z,72.14
2023-10-05T19:35:35.867Z,72.30
2023-10-05T19:38:02.911Z,72.30
2023-10-05T19:40:30.091Z,72.26
2023-10-05T19:42:57.196Z,72.29
2023-10-05T19:45:24.164Z,72.33
2023-10-05T19:47:51.155Z,72.39
2023-10-05T19:50:18.141Z,72.36
2023-10-05T19:52:45.177Z,72.58
2023-10-05T19:55:15.037Z,72.70
2023-10-05T19:57:43.112Z,72.84
2023-10-05T20:00:13.817Z,73.14
2023-10-05T20:02:41.314Z,73.37
2023-10-05T20:05:09.453Z,73.36
2023-10-05T20:07:36.719Z,73.53
2023-10-05T20:10:06.341Z,73.49
2023-10-05T20:12:33.684Z,73.46
2023-10-05T20:15:01.097Z,73.59
2023-10-05T20:17:28.612Z,73.82
2023-10-05T20:19:56.068Z,74.03
2023-10-05T20:22:23.250Z,74.33
2023-10-05T20:24:50.449Z,74.49
2023-10-05T20:27:17.684Z,74.42
2023-10-05T20:29:45.041Z,74.30
2023-10-05T20:32:12.080Z,74.32
2023-10-05T20:34:43.325Z,74.42
2023-10-05T20:37:11.000Z,74.33
2023-10-05T20:39:38.210Z,74.28
2023-10-05T20:42:05.400Z,74.25
2023-10-05T20:44:34.734Z,74.26
2023-10-05T20:47:02.465Z,74.37
2023-10-05T20:49:35.190Z,74.49
2023-10-05T20:52:03.330Z,74.49
2023-10-05T20:54:30.705Z,74.46
2023-10-05T20:56:59.152Z,74.68
2023-10-05T20:59:31.847Z,74.90
2023-10-05T21:02:01.752Z,75.18
2023-10-05T21:04:29.249Z,75.43
2023-10-05T21:06:56.545Z,75.51
2023-10-05T21:09:25.602Z,75.64
2023-10-05T21:11:52.564Z,75.59
2023-10-05T21:14:19.648Z,75.72
2023-10-05T21:16:46.792Z,75.85
2023-10-05T21:19:14.261Z,76.01
2023-10-05T21:21:41.491Z,75.93
2023-10-05T21:24:09.562Z,75.84
2023-10-05T21:26:38.168Z,75.91
2023-10-05T21:29:06.431Z,75.90
2023-10-05T21:31:33.858Z,75.91
2023-10-05T21:34:04.993Z,75.83
2023-10-05T21:36:33.611Z,75.75
2023-10-05T21:39:02.887Z,75.76
2023-10-05T21:41:30.650Z,75.86
2023-10-05T21:43:59.190Z,75.96
2023-10-05T21:46:28.134Z,75.95
2023-10-05T21:48:55.787Z,75.89
2023-10-05T21:51:23.398Z,76.01
2023-10-05T21:53:50.550Z,76.15
2023-10-05T21:56:17.565Z,76.22
2023-10-05T21:58:44.865Z,76.37
2023-10-05T22:01:12.202Z,76.28
2023-10-05T22:03:39.540Z,76.33
2023-10-05T22:06:07.319Z,76.35
2023-10-05T22:08:34.728Z,76.44
2023-10-05T22:11:04.745Z,76.43
2023-10-05T22:13:33.830Z,76.53
2023-10-05T22:16:00.864Z,76.61
2023-10-05T22:18:28.075Z,76.76
2023-10-05T22:20:55.372Z,76.90
2023-10-05T22:23:23.524Z,76.97
2023-10-05T22:25:50.510Z,76.91
2023-10-05T22:28:18.257Z,77.00
2023-10-05T22:30:46.260Z,77.04
2023-10-05T22:33:13.532Z,76.94
2023-10-05T22:35:40.871Z,76.95
2023-10-05T22:38:11.668Z,76.86
2023-10-05T22:40:39.771Z,76.87
2023-10-05T22:43:08.917Z,77.02
2023-10-05T22:45:35.920Z,76.95
2023-10-05T22:48:03.588Z,76.96
2023-10-05T22:50:31.968Z,77.04
2023-10-05T22:52:59.070Z,77.01
2023-10-05T22:55:26.252Z,77.04
2023-10-05T22:57:55.453Z,77.13
2023-10-05T23:00:22.351Z,77.03
2023-10-05T23:02:50.950Z,77.05
2023-10-05T23:05:18.987Z,77.23
2023-10-05T23:07:45.868Z,77.06
2023-10-05T23:10:13.208Z,77.07
2023-10-05T23:12:41.790Z,77.02
2023-10-05T23:15:09.298Z,76.93
2023-10-05T23:17:38.148Z,76.96
2023-10-05T23:20:08.986Z,76.87
2023-10-05T23:22:42.008Z,76.89
2023-10-05T23:25:18.850Z,76.83
2023-10-05T23:27:49.741Z,76.51
2023-10-05T23:30:17.645Z,76.36
2023-10-05T23:32:47.618Z,76.28
2023-10-05T23:35:17.136Z,76.16
2023-10-05T23:37:45.877Z,76.23
2023-10-05T23:40:13.379Z,75.98
2023-10-05T23:42:42.138Z,75.88
2023-10-05T23:45:12.358Z,75.68
2023-10-05T23:47:39.472Z,75.75
2023-10-05T23:50:11.878Z,75.80
2023-10-05T23:52:39.470Z,75.90
2023-10-05T23:55:10.070Z,76.06
2023-10-05T23:59:33.385Z,75.90
